AHY6731 KEWR-KMDT
Flight info
| Callsign | AHY6731 |
|---|---|
| Flight time | 0h 42m |
| Altitude | 22000 |
| Route | SBJ T430 ETX |
| Aircraft | A346/H-SDE2E3FGHIJ3J4J5M1RWXY/LB1D1 |
Departure
| Time | 2026-05-09 11:31 |
|---|---|
| Airport | Newark Liberty International Airport (KEWR) |
Arrival
| Time | 2026-05-09 12:13 |
|---|---|
| Airport | Harrisburg International Airport (KMDT) |
| Time | Latitude | Longitude | Altitude | Speed | Heading |
|---|---|---|---|---|---|
| 2026-05-09 11:10 | 40.69293 | -74.17457 | 29 ft | 0 kts | 186° |
| 2026-05-09 11:20 | 40.69307 | -74.17456 | 31 ft | 4 kts | 176° |
| 2026-05-09 11:20 | 40.69329 | -74.17463 | 25 ft | 4 kts | 149° |
| 2026-05-09 11:20 | 40.69345 | -74.17483 | 25 ft | 4 kts | 119° |
| 2026-05-09 11:20 | 40.69354 | -74.17515 | 23 ft | 4 kts | 105° |
| 2026-05-09 11:21 | 40.69358 | -74.17531 | 26 ft | 1 kts | 105° |
| 2026-05-09 11:21 | 40.69358 | -74.17532 | 26 ft | 0 kts | 105° |
| 2026-05-09 11:23 | 40.69355 | -74.17519 | 24 ft | 4 kts | 105° |
| 2026-05-09 11:23 | 40.69344 | -74.17465 | 25 ft | 8 kts | 103° |
| 2026-05-09 11:23 | 40.69327 | -74.17373 | 27 ft | 12 kts | 108° |
| 2026-05-09 11:24 | 40.69285 | -74.17262 | 29 ft | 15 kts | 118° |
| 2026-05-09 11:24 | 40.69236 | -74.17135 | 27 ft | 13 kts | 115° |
| 2026-05-09 11:24 | 40.69225 | -74.17066 | 27 ft | 7 kts | 74° |
| 2026-05-09 11:24 | 40.69270 | -74.17012 | 27 ft | 11 kts | 28° |
| 2026-05-09 11:25 | 40.69344 | -74.16961 | 29 ft | 13 kts | 27° |
| 2026-05-09 11:25 | 40.69432 | -74.16903 | 31 ft | 16 kts | 26° |
| 2026-05-09 11:25 | 40.69547 | -74.16827 | 29 ft | 21 kts | 26° |
| 2026-05-09 11:25 | 40.69689 | -74.16736 | 27 ft | 22 kts | 25° |
| 2026-05-09 11:26 | 40.69814 | -74.16657 | 24 ft | 21 kts | 26° |
| 2026-05-09 11:26 | 40.69913 | -74.16596 | 27 ft | 11 kts | 25° |
| 2026-05-09 11:26 | 40.69998 | -74.16543 | 25 ft | 16 kts | 25° |
| 2026-05-09 11:26 | 40.70036 | -74.16519 | 23 ft | 1 kts | 28° |
| 2026-05-09 11:27 | 40.70047 | -74.16506 | 26 ft | 4 kts | 53° |
| 2026-05-09 11:27 | 40.70059 | -74.16460 | 24 ft | 7 kts | 77° |
| 2026-05-09 11:27 | 40.70055 | -74.16389 | 27 ft | 6 kts | 132° |
| 2026-05-09 11:27 | 40.69995 | -74.16389 | 24 ft | 12 kts | 201° |
| 2026-05-09 11:28 | 40.69971 | -74.16403 | 22 ft | 0 kts | 205° |
| 2026-05-09 11:30 | 40.69888 | -74.16454 | 25 ft | 51 kts | 205° |
| 2026-05-09 11:30 | 40.69265 | -74.16846 | 31 ft | 143 kts | 206° |
| 2026-05-09 11:31 | 40.68211 | -74.17514 | 512 ft | 177 kts | 205° |
| 2026-05-09 11:31 | 40.67022 | -74.17961 | 1665 ft | 179 kts | 193° |
| 2026-05-09 11:31 | 40.65799 | -74.18346 | 2512 ft | 185 kts | 203° |
| 2026-05-09 11:31 | 40.64558 | -74.18962 | 3238 ft | 198 kts | 207° |
| 2026-05-09 11:32 | 40.63380 | -74.19972 | 3790 ft | 212 kts | 231° |
| 2026-05-09 11:32 | 40.62768 | -74.21852 | 4287 ft | 241 kts | 260° |
| 2026-05-09 11:32 | 40.62533 | -74.24061 | 5638 ft | 241 kts | 249° |
| 2026-05-09 11:32 | 40.61817 | -74.25987 | 7362 ft | 229 kts | 243° |
| 2026-05-09 11:33 | 40.61426 | -74.28066 | 8691 ft | 243 kts | 259° |
| 2026-05-09 11:33 | 40.61256 | -74.30346 | 9845 ft | 255 kts | 261° |
| 2026-05-09 11:33 | 40.60941 | -74.35080 | 12278 ft | 262 kts | 262° |
| 2026-05-09 11:34 | 40.60781 | -74.37490 | 13498 ft | 266 kts | 263° |
| 2026-05-09 11:34 | 40.60624 | -74.39886 | 14637 ft | 265 kts | 263° |
| 2026-05-09 11:34 | 40.60468 | -74.42259 | 15931 ft | 254 kts | 263° |
| 2026-05-09 11:34 | 40.60314 | -74.44580 | 17053 ft | 253 kts | 264° |
| 2026-05-09 11:35 | 40.60155 | -74.46955 | 17587 ft | 269 kts | 264° |
| 2026-05-09 11:35 | 40.59985 | -74.49490 | 18052 ft | 287 kts | 264° |
| 2026-05-09 11:35 | 40.59803 | -74.52199 | 18554 ft | 300 kts | 264° |
| 2026-05-09 11:35 | 40.59617 | -74.54957 | 19321 ft | 303 kts | 264° |
| 2026-05-09 11:36 | 40.59432 | -74.57692 | 20172 ft | 305 kts | 264° |
| 2026-05-09 11:36 | 40.59241 | -74.60508 | 21037 ft | 300 kts | 264° |
| 2026-05-09 11:36 | 40.59066 | -74.63232 | 21630 ft | 295 kts | 264° |
| 2026-05-09 11:36 | 40.58890 | -74.65854 | 21911 ft | 283 kts | 264° |
| 2026-05-09 11:37 | 40.58700 | -74.68494 | 21963 ft | 302 kts | 264° |
| 2026-05-09 11:37 | 40.58492 | -74.71416 | 21962 ft | 328 kts | 264° |
| 2026-05-09 11:37 | 40.58272 | -74.74519 | 21960 ft | 352 kts | 264° |
| 2026-05-09 11:37 | 40.58012 | -74.77835 | 21962 ft | 375 kts | 263° |
| 2026-05-09 11:38 | 40.57728 | -74.81306 | 21952 ft | 386 kts | 263° |
| 2026-05-09 11:38 | 40.57438 | -74.84839 | 21948 ft | 388 kts | 263° |
| 2026-05-09 11:38 | 40.57150 | -74.88372 | 21952 ft | 389 kts | 263° |
| 2026-05-09 11:38 | 40.56864 | -74.91866 | 21943 ft | 389 kts | 263° |
| 2026-05-09 11:39 | 40.56572 | -74.95411 | 21934 ft | 390 kts | 263° |
| 2026-05-09 11:39 | 40.56279 | -74.98973 | 21939 ft | 391 kts | 263° |
| 2026-05-09 11:39 | 40.55985 | -75.02531 | 21945 ft | 391 kts | 263° |
| 2026-05-09 11:40 | 40.55396 | -75.09652 | 21953 ft | 391 kts | 263° |
| 2026-05-09 11:40 | 40.55101 | -75.13210 | 21956 ft | 391 kts | 264° |
| 2026-05-09 11:40 | 40.54914 | -75.16793 | 21953 ft | 392 kts | 266° |
| 2026-05-09 11:40 | 40.54897 | -75.20377 | 21956 ft | 393 kts | 270° |
| 2026-05-09 11:41 | 40.55052 | -75.23969 | 21953 ft | 394 kts | 272° |
| 2026-05-09 11:41 | 40.55292 | -75.27560 | 21956 ft | 393 kts | 273° |
| 2026-05-09 11:41 | 40.55543 | -75.31145 | 21956 ft | 393 kts | 273° |
| 2026-05-09 11:41 | 40.55793 | -75.34724 | 21959 ft | 392 kts | 273° |
| 2026-05-09 11:42 | 40.56042 | -75.38299 | 21957 ft | 392 kts | 273° |
| 2026-05-09 11:42 | 40.56290 | -75.41879 | 21957 ft | 393 kts | 273° |
| 2026-05-09 11:42 | 40.56538 | -75.45452 | 21928 ft | 389 kts | 273° |
| 2026-05-09 11:42 | 40.56781 | -75.48962 | 21455 ft | 382 kts | 273° |
| 2026-05-09 11:43 | 40.57019 | -75.52422 | 20953 ft | 375 kts | 272° |
| 2026-05-09 11:43 | 40.57250 | -75.55819 | 20425 ft | 370 kts | 272° |
| 2026-05-09 11:43 | 40.57477 | -75.59180 | 19789 ft | 368 kts | 272° |
| 2026-05-09 11:43 | 40.57702 | -75.62525 | 19192 ft | 365 kts | 272° |
| 2026-05-09 11:44 | 40.57839 | -75.65843 | 18599 ft | 361 kts | 266° |
| 2026-05-09 11:44 | 40.57505 | -75.69092 | 18055 ft | 356 kts | 256° |
| 2026-05-09 11:44 | 40.56818 | -75.72209 | 17410 ft | 353 kts | 255° |
| 2026-05-09 11:44 | 40.56279 | -75.75324 | 17114 ft | 343 kts | 258° |
| 2026-05-09 11:45 | 40.55816 | -75.78348 | 16826 ft | 333 kts | 258° |
| 2026-05-09 11:45 | 40.55383 | -75.81323 | 16294 ft | 331 kts | 258° |
| 2026-05-09 11:45 | 40.54967 | -75.84304 | 15681 ft | 331 kts | 258° |
| 2026-05-09 11:45 | 40.54558 | -75.87285 | 15114 ft | 331 kts | 258° |
| 2026-05-09 11:46 | 40.54161 | -75.90222 | 14590 ft | 330 kts | 258° |
| 2026-05-09 11:46 | 40.53756 | -75.93230 | 14072 ft | 329 kts | 258° |
| 2026-05-09 11:46 | 40.53362 | -75.96198 | 13513 ft | 329 kts | 258° |
| 2026-05-09 11:46 | 40.52982 | -75.99115 | 12944 ft | 327 kts | 258° |
| 2026-05-09 11:47 | 40.52605 | -76.02063 | 12590 ft | 321 kts | 258° |
| 2026-05-09 11:47 | 40.52246 | -76.04935 | 12079 ft | 308 kts | 258° |
| 2026-05-09 11:47 | 40.51923 | -76.07614 | 11653 ft | 291 kts | 258° |
| 2026-05-09 11:47 | 40.51622 | -76.10202 | 11306 ft | 274 kts | 258° |
| 2026-05-09 11:48 | 40.51354 | -76.12591 | 11029 ft | 263 kts | 258° |
| 2026-05-09 11:48 | 40.51095 | -76.14951 | 10711 ft | 261 kts | 259° |
| 2026-05-09 11:48 | 40.50832 | -76.17321 | 10274 ft | 262 kts | 258° |
| 2026-05-09 11:48 | 40.50581 | -76.19693 | 9901 ft | 261 kts | 258° |
| 2026-05-09 11:49 | 40.50336 | -76.22057 | 9523 ft | 260 kts | 258° |
| 2026-05-09 11:49 | 40.50095 | -76.24408 | 9128 ft | 259 kts | 258° |
| 2026-05-09 11:49 | 40.49854 | -76.26737 | 8893 ft | 252 kts | 258° |
| 2026-05-09 11:49 | 40.49624 | -76.28983 | 8716 ft | 243 kts | 258° |
| 2026-05-09 11:50 | 40.49404 | -76.31152 | 8506 ft | 236 kts | 258° |
| 2026-05-09 11:50 | 40.49192 | -76.33277 | 8197 ft | 233 kts | 258° |
| 2026-05-09 11:50 | 40.48980 | -76.35391 | 7860 ft | 233 kts | 258° |
| 2026-05-09 11:50 | 40.48763 | -76.37498 | 7530 ft | 232 kts | 258° |
| 2026-05-09 11:51 | 40.48547 | -76.39595 | 7187 ft | 230 kts | 258° |
| 2026-05-09 11:51 | 40.48328 | -76.41675 | 6884 ft | 229 kts | 258° |
| 2026-05-09 11:51 | 40.48110 | -76.43749 | 6588 ft | 228 kts | 258° |
| 2026-05-09 11:51 | 40.47868 | -76.45801 | 6301 ft | 226 kts | 252° |
| 2026-05-09 11:52 | 40.47349 | -76.47728 | 5980 ft | 223 kts | 245° |
| 2026-05-09 11:52 | 40.46719 | -76.49593 | 5648 ft | 223 kts | 244° |
| 2026-05-09 11:52 | 40.46067 | -76.51438 | 5329 ft | 223 kts | 243° |
| 2026-05-09 11:52 | 40.45412 | -76.53277 | 5025 ft | 221 kts | 243° |
| 2026-05-09 11:53 | 40.44760 | -76.55106 | 4707 ft | 221 kts | 243° |
| 2026-05-09 11:53 | 40.44104 | -76.56937 | 4393 ft | 221 kts | 244° |
| 2026-05-09 11:53 | 40.43445 | -76.58749 | 4107 ft | 219 kts | 244° |
| 2026-05-09 11:53 | 40.42783 | -76.60547 | 3817 ft | 218 kts | 244° |
| 2026-05-09 11:54 | 40.42116 | -76.62338 | 3526 ft | 218 kts | 244° |
| 2026-05-09 11:54 | 40.41436 | -76.64119 | 3224 ft | 217 kts | 244° |
| 2026-05-09 11:54 | 40.40756 | -76.65885 | 3004 ft | 215 kts | 243° |
| 2026-05-09 11:54 | 40.40082 | -76.67644 | 2999 ft | 217 kts | 243° |
| 2026-05-09 11:55 | 40.39401 | -76.69422 | 2987 ft | 218 kts | 243° |
| 2026-05-09 11:56 | 40.36001 | -76.78286 | 3004 ft | 220 kts | 244° |
| 2026-05-09 11:56 | 40.35296 | -76.80065 | 3009 ft | 220 kts | 244° |
| 2026-05-09 11:56 | 40.34591 | -76.81841 | 3007 ft | 219 kts | 244° |
| 2026-05-09 11:57 | 40.33890 | -76.83615 | 3007 ft | 219 kts | 244° |
| 2026-05-09 11:57 | 40.33183 | -76.85390 | 3006 ft | 219 kts | 244° |
| 2026-05-09 11:57 | 40.32479 | -76.87167 | 3017 ft | 219 kts | 244° |
| 2026-05-09 11:57 | 40.31786 | -76.88935 | 3015 ft | 217 kts | 244° |
| 2026-05-09 11:58 | 40.31099 | -76.90688 | 3015 ft | 216 kts | 243° |
| 2026-05-09 11:58 | 40.30156 | -76.92204 | 2990 ft | 220 kts | 216° |
| 2026-05-09 11:58 | 40.28687 | -76.92812 | 2969 ft | 227 kts | 185° |
| 2026-05-09 11:58 | 40.27138 | -76.92302 | 2645 ft | 239 kts | 157° |
| 2026-05-09 11:59 | 40.25717 | -76.91124 | 2527 ft | 245 kts | 150° |
| 2026-05-09 11:59 | 40.24337 | -76.89835 | 2519 ft | 249 kts | 148° |
| 2026-05-09 11:59 | 40.23183 | -76.88070 | 2488 ft | 258 kts | 118° |
| 2026-05-09 11:59 | 40.22621 | -76.85841 | 2123 ft | 264 kts | 108° |
| 2026-05-09 12:00 | 40.22073 | -76.83594 | 1871 ft | 253 kts | 114° |
| 2026-05-09 12:00 | 40.21368 | -76.81555 | 1644 ft | 239 kts | 121° |
| 2026-05-09 12:00 | 40.20637 | -76.79669 | 1440 ft | 226 kts | 120° |
| 2026-05-09 12:00 | 40.19934 | -76.77818 | 1445 ft | 243 kts | 120° |
| 2026-05-09 12:01 | 40.19112 | -76.75657 | 1888 ft | 286 kts | 120° |
| 2026-05-09 12:01 | 40.18268 | -76.73416 | 2310 ft | 262 kts | 119° |
| 2026-05-09 12:01 | 40.17476 | -76.71266 | 2595 ft | 268 kts | 118° |
| 2026-05-09 12:01 | 40.16655 | -76.69017 | 2990 ft | 272 kts | 118° |
| 2026-05-09 12:02 | 40.15843 | -76.66731 | 3316 ft | 281 kts | 115° |
| 2026-05-09 12:02 | 40.15483 | -76.64207 | 3139 ft | 286 kts | 87° |
| 2026-05-09 12:02 | 40.16038 | -76.61732 | 3051 ft | 285 kts | 58° |
| 2026-05-09 12:02 | 40.17370 | -76.59878 | 3027 ft | 278 kts | 28° |
| 2026-05-09 12:03 | 40.19150 | -76.59058 | 3012 ft | 268 kts | 359° |
| 2026-05-09 12:03 | 40.20936 | -76.59435 | 3011 ft | 257 kts | 330° |
| 2026-05-09 12:03 | 40.22351 | -76.60776 | 3022 ft | 250 kts | 312° |
| 2026-05-09 12:03 | 40.23573 | -76.62388 | 3014 ft | 249 kts | 309° |
| 2026-05-09 12:04 | 40.24753 | -76.64039 | 3007 ft | 247 kts | 308° |
| 2026-05-09 12:04 | 40.25926 | -76.65701 | 3015 ft | 248 kts | 309° |
| 2026-05-09 12:04 | 40.27088 | -76.67370 | 3001 ft | 248 kts | 308° |
| 2026-05-09 12:04 | 40.28257 | -76.69040 | 3003 ft | 248 kts | 308° |
| 2026-05-09 12:05 | 40.29415 | -76.70679 | 3003 ft | 240 kts | 308° |
| 2026-05-09 12:05 | 40.30528 | -76.72236 | 2999 ft | 229 kts | 308° |
| 2026-05-09 12:05 | 40.31619 | -76.73751 | 3002 ft | 228 kts | 308° |
| 2026-05-09 12:05 | 40.32712 | -76.75262 | 3013 ft | 228 kts | 309° |
| 2026-05-09 12:06 | 40.33798 | -76.76771 | 3012 ft | 228 kts | 309° |
| 2026-05-09 12:06 | 40.34881 | -76.78285 | 3012 ft | 227 kts | 308° |
| 2026-05-09 12:06 | 40.35960 | -76.79795 | 3013 ft | 227 kts | 308° |
| 2026-05-09 12:06 | 40.36755 | -76.81518 | 2986 ft | 217 kts | 281° |
| 2026-05-09 12:07 | 40.36789 | -76.83402 | 3008 ft | 199 kts | 262° |
| 2026-05-09 12:07 | 40.36575 | -76.85183 | 3015 ft | 198 kts | 259° |
| 2026-05-09 12:07 | 40.36411 | -76.86360 | 3016 ft | 197 kts | 259° |
| 2026-05-09 12:07 | 40.36161 | -76.88122 | 3012 ft | 195 kts | 258° |
| 2026-05-09 12:08 | 40.35916 | -76.89869 | 3011 ft | 195 kts | 258° |
| 2026-05-09 12:08 | 40.35674 | -76.91618 | 3010 ft | 192 kts | 258° |
| 2026-05-09 12:08 | 40.35443 | -76.93299 | 3017 ft | 186 kts | 259° |
| 2026-05-09 12:08 | 40.35123 | -76.94939 | 3035 ft | 185 kts | 240° |
| 2026-05-09 12:09 | 40.34179 | -76.96062 | 2787 ft | 191 kts | 204° |
| 2026-05-09 12:09 | 40.32851 | -76.96112 | 2623 ft | 199 kts | 166° |
| 2026-05-09 12:09 | 40.31626 | -76.95242 | 2527 ft | 203 kts | 152° |
| 2026-05-09 12:10 | 40.27959 | -76.92550 | 2526 ft | 204 kts | 151° |
| 2026-05-09 12:10 | 40.26819 | -76.91440 | 2553 ft | 204 kts | 149° |
| 2026-05-09 12:10 | 40.25710 | -76.90316 | 2549 ft | 195 kts | 149° |
| 2026-05-09 12:11 | 40.24702 | -76.89241 | 2503 ft | 180 kts | 141° |
| 2026-05-09 12:11 | 40.23908 | -76.87969 | 2362 ft | 182 kts | 129° |
| 2026-05-09 12:11 | 40.23271 | -76.86554 | 2027 ft | 179 kts | 122° |
| 2026-05-09 12:11 | 40.22714 | -76.85084 | 1620 ft | 179 kts | 121° |
| 2026-05-09 12:12 | 40.22185 | -76.83667 | 1371 ft | 168 kts | 121° |
| 2026-05-09 12:12 | 40.21673 | -76.82341 | 1150 ft | 158 kts | 119° |
| 2026-05-09 12:12 | 40.21182 | -76.81079 | 944 ft | 154 kts | 118° |
| 2026-05-09 12:12 | 40.20698 | -76.79836 | 740 ft | 153 kts | 116° |
| 2026-05-09 12:13 | 40.20216 | -76.78592 | 513 ft | 153 kts | 115° |
| 2026-05-09 12:13 | 40.19736 | -76.77349 | 367 ft | 152 kts | 115° |
| 2026-05-09 12:13 | 40.19309 | -76.76240 | 322 ft | 105 kts | 116° |
| 2026-05-09 12:13 | 40.19101 | -76.75696 | 321 ft | 29 kts | 116° |
| 2026-05-09 12:14 | 40.19010 | -76.75457 | 316 ft | 31 kts | 116° |
| 2026-05-09 12:14 | 40.18932 | -76.75234 | 317 ft | 20 kts | 102° |
| 2026-05-09 12:14 | 40.18980 | -76.75122 | 317 ft | 0 kts | 25° |
| 2026-05-09 12:14 | 40.18995 | -76.75122 | 316 ft | 4 kts | 335° |
| 2026-05-09 12:15 | 40.19039 | -76.75225 | 317 ft | 20 kts | 296° |
| 2026-05-09 12:15 | 40.19107 | -76.75404 | 317 ft | 23 kts | 296° |
| 2026-05-09 12:15 | 40.19174 | -76.75504 | 319 ft | 15 kts | 349° |
| 2026-05-09 12:15 | 40.19271 | -76.75454 | 319 ft | 14 kts | 45° |
| 2026-05-09 12:16 | 40.19351 | -76.75349 | 320 ft | 13 kts | 45° |
| 2026-05-09 12:16 | 40.19357 | -76.75341 | 319 ft | 1 kts | 45° |
| 2026-05-09 12:16 | 40.19373 | -76.75321 | 320 ft | 5 kts | 45° |
| 2026-05-09 12:16 | 40.19403 | -76.75297 | 320 ft | 6 kts | 13° |
| 2026-05-09 12:17 | 40.19417 | -76.75301 | 320 ft | 0 kts | 332° |
| 2026-05-09 12:17 | 40.19425 | -76.75306 | 321 ft | 1 kts | 335° |
| 2026-05-09 12:17 | 40.19443 | -76.75322 | 321 ft | 4 kts | 314° |
| 2026-05-09 12:17 | 40.19452 | -76.75353 | 321 ft | 0 kts | 286° |
| 2026-05-09 12:18 | 40.19454 | -76.75368 | 322 ft | 4 kts | 281° |
| 2026-05-09 12:18 | 40.19457 | -76.75419 | 321 ft | 6 kts | 268° |
| 2026-05-09 12:18 | 40.19457 | -76.75421 | 321 ft | 0 kts | 269° |